Time;durP1;ratioP1;P1;durP2;ratioP2;P2;SDS_P1;SDS_P2;PMS_P1;PMS_P2;Temp;Humidity;BMP_temperature;BMP_pressure;BME280_temperature;BME280_humidity;BME280_pressure;Samples;Min_cycle;Max_cycle;Signal;HPM_P1;HPM_P2
2022/09/09 00:01:57;;;;;;;;;;;21.10;64.70;;;;;;6189055;23;19916;-78
2022/09/09 00:04:28;;;;;;;;;;;21.10;64.70;;;;;;6188176;23;19959;-78
2022/09/09 00:07:10;;;;;;;;;;;21.00;64.40;;;;;;6183823;23;19991;-78
2022/09/09 00:09:55;;;;;;;;;;;21.00;64.60;;;;;;6190516;23;19920;-81
2022/09/09 00:12:27;;;;;;;;;;;21.00;64.50;;;;;;6187770;23;20323;-80
2022/09/09 00:15:00;;;;;;;;;;;21.00;64.00;;;;;;6189836;23;19916;-80
2022/09/09 00:17:35;;;;;;;;;;;21.00;63.80;;;;;;6188868;23;19920;-77
2022/09/09 00:20:10;;;;;;;;;;;21.00;64.30;;;;;;6160356;23;19916;-78
2022/09/09 00:22:39;;;;;;;;;;;20.90;64.50;;;;;;6184003;23;20321;-77
2022/09/09 00:25:39;;;;;;;;;;;20.90;64.50;;;;;;6188740;23;20408;-79
2022/09/09 00:28:17;;;;;;;;;;;20.80;63.90;;;;;;6169409;23;19948;-80
2022/09/09 00:30:47;;;;;;;;;;;20.80;63.40;;;;;;6192492;23;19966;-82
2022/09/09 00:33:16;;;;;;;;;;;20.80;62.80;;;;;;6185114;23;19999;-81
2022/09/09 00:35:44;;;;;;;;;;;20.70;63.20;;;;;;6185147;23;19916;-80
2022/09/09 00:38:34;;;;;;;;;;;20.70;63.90;;;;;;6183791;23;19955;-78
2022/09/09 00:41:31;;;;;;;;;;;20.60;64.20;;;;;;6180485;23;20257;-81
2022/09/09 00:44:01;;;;;;;;;;;20.60;64.10;;;;;;6182028;23;19943;-80
2022/09/09 00:46:41;;;;;;;;;;;20.50;64.30;;;;;;6185576;23;19970;-79
2022/09/09 00:49:21;;;;;;;;;;;20.40;64.50;;;;;;6192393;23;19923;-79
2022/09/09 00:52:13;;;;;;;;;;;20.40;64.80;;;;;;6187376;23;19931;-81
2022/09/09 00:54:58;;;;;;;;;;;20.30;65.10;;;;;;6191425;23;19987;-79
2022/09/09 00:57:31;;;;;;;;;;;20.20;65.00;;;;;;6175144;23;19959;-82
2022/09/09 01:00:05;;;;;;;;;;;20.20;65.00;;;;;;6188298;23;19920;-81
2022/09/09 01:02:45;;;;;;;;;;;20.10;65.00;;;;;;6195369;23;19935;-81
2022/09/09 01:05:33;;;;;;;;;;;20.10;64.90;;;;;;6190375;23;19939;-79
2022/09/09 01:08:05;;;;;;;;;;;20.00;64.60;;;;;;6192046;23;19916;-81
2022/09/09 01:10:53;;;;;;;;;;;20.00;64.40;;;;;;6190903;23;19920;-81
2022/09/09 01:13:24;;;;;;;;;;;19.90;64.30;;;;;;6186193;23;19920;-81
2022/09/09 01:15:56;;;;;;;;;;;20.00;63.20;;;;;;6190343;23;19916;-81
2022/09/09 01:18:28;;;;;;;;;;;20.00;63.20;;;;;;6188198;23;20025;-82
2022/09/09 01:21:08;;;;;;;;;;;20.00;62.90;;;;;;6187367;23;19916;-80
2022/09/09 01:23:46;;;;;;;;;;;20.00;63.20;;;;;;6186732;23;19939;-80
2022/09/09 01:26:25;;;;;;;;;;;20.00;63.00;;;;;;6188334;23;19947;-78
2022/09/09 01:28:52;;;;;;;;;;;20.00;62.30;;;;;;6187116;23;19923;-81
2022/09/09 01:31:21;;;;;;;;;;;20.00;61.80;;;;;;6188228;23;20480;-78
2022/09/09 01:33:48;;;;;;;;;;;20.00;64.00;;;;;;6186274;23;19999;-81
2022/09/09 01:36:19;;;;;;;;;;;20.00;65.10;;;;;;6188371;23;19916;-78
2022/09/09 01:38:46;;;;;;;;;;;20.00;71.00;;;;;;6189390;23;19932;-79
2022/09/09 01:41:13;;;;;;;;;;;20.00;74.20;;;;;;6187456;23;19943;-81
2022/09/09 01:43:40;;;;;;;;;;;20.00;71.60;;;;;;6187638;23;19927;-81
2022/09/09 01:46:07;;;;;;;;;;;20.00;68.50;;;;;;6187216;23;20309;-78
2022/09/09 01:48:34;;;;;;;;;;;20.00;65.10;;;;;;6185844;23;19943;-81
2022/09/09 01:51:01;;;;;;;;;;;20.00;62.40;;;;;;6184719;23;19920;-81
2022/09/09 01:53:27;;;;;;;;;;;20.00;62.50;;;;;;6185684;23;19944;-81
2022/09/09 01:55:58;;;;;;;;;;;20.00;64.30;;;;;;6186298;23;19916;-81
2022/09/09 01:58:35;;;;;;;;;;;19.90;66.10;;;;;;6188789;23;19951;-81
2022/09/09 02:01:33;;;;;;;;;;;19.90;68.00;;;;;;6186444;23;19966;-78
2022/09/09 02:04:02;;;;;;;;;;;19.80;66.80;;;;;;6192674;23;19936;-81
2022/09/09 02:06:34;;;;;;;;;;;19.70;64.00;;;;;;6184388;23;19922;-81
2022/09/09 02:09:03;;;;;;;;;;;19.70;61.30;;;;;;6189974;23;19987;-80
2022/09/09 02:11:30;;;;;;;;;;;19.70;60.80;;;;;;6189364;23;19916;-79
2022/09/09 02:14:01;;;;;;;;;;;19.70;60.40;;;;;;6185390;23;19924;-81
2022/09/09 02:16:32;;;;;;;;;;;19.70;60.00;;;;;;6186493;23;19924;-78
2022/09/09 02:19:13;;;;;;;;;;;19.80;60.10;;;;;;6189311;23;19916;-82
2022/09/09 02:21:41;;;;;;;;;;;19.80;60.50;;;;;;6182348;23;19931;-79
2022/09/09 02:24:10;;;;;;;;;;;19.80;60.90;;;;;;6186458;23;19996;-81
2022/09/09 02:26:41;;;;;;;;;;;19.80;61.10;;;;;;6197614;23;19927;-82
2022/09/09 02:29:33;;;;;;;;;;;19.70;61.40;;;;;;6173916;23;19923;-82
2022/09/09 02:32:03;;;;;;;;;;;19.60;62.50;;;;;;6184822;23;19932;-79
2022/09/09 02:34:31;;;;;;;;;;;19.50;63.10;;;;;;6184419;23;19916;-82
2022/09/09 02:36:59;;;;;;;;;;;19.50;64.00;;;;;;6186816;23;19960;-82
2022/09/09 02:39:26;;;;;;;;;;;19.40;65.80;;;;;;6162828;23;19920;-82
2022/09/09 02:41:53;;;;;;;;;;;19.10;65.90;;;;;;6180844;23;20218;-81
2022/09/09 02:44:19;;;;;;;;;;;19.00;66.40;;;;;;6187935;23;20320;-80
2022/09/09 02:46:49;;;;;;;;;;;18.90;69.10;;;;;;6183419;23;19959;-81
2022/09/09 02:49:28;;;;;;;;;;;18.70;71.00;;;;;;6190371;23;20007;-79
2022/09/09 02:51:55;;;;;;;;;;;18.50;71.90;;;;;;6187411;23;19947;-78
2022/09/09 02:54:30;;;;;;;;;;;18.40;72.70;;;;;;6186588;23;20000;-81
2022/09/09 02:57:01;;;;;;;;;;;18.30;74.10;;;;;;6188570;23;19940;-81
2022/09/09 02:59:29;;;;;;;;;;;18.20;74.60;;;;;;6186061;23;19920;-81
2022/09/09 03:01:56;;;;;;;;;;;18.20;74.10;;;;;;6189345;23;19951;-81
2022/09/09 03:04:24;;;;;;;;;;;18.20;74.00;;;;;;6189380;23;19916;-82
2022/09/09 03:06:51;;;;;;;;;;;18.20;74.40;;;;;;6189154;23;19927;-80
2022/09/09 03:09:18;;;;;;;;;;;18.20;75.60;;;;;;6188128;23;19999;-81
2022/09/09 03:11:44;;;;;;;;;;;18.10;78.20;;;;;;6183909;23;19975;-81
2022/09/09 03:14:11;;;;;;;;;;;18.10;78.30;;;;;;6171426;23;19990;-79
2022/09/09 03:16:38;;;;;;;;;;;18.00;78.70;;;;;;6183828;23;20012;-80
2022/09/09 03:19:06;;;;;;;;;;;17.90;80.80;;;;;;6186088;23;20249;-80
2022/09/09 03:21:32;;;;;;;;;;;17.70;80.70;;;;;;6187137;23;20360;-81
2022/09/09 03:23:59;;;;;;;;;;;17.70;79.70;;;;;;6185254;23;19916;-80
2022/09/09 03:26:26;;;;;;;;;;;17.70;79.30;;;;;;6187047;23;19956;-80
2022/09/09 03:28:53;;;;;;;;;;;17.60;80.30;;;;;;6185497;23;19991;-81
2022/09/09 03:31:19;;;;;;;;;;;17.60;79.80;;;;;;6187737;23;19995;-81
2022/09/09 03:33:47;;;;;;;;;;;17.60;79.10;;;;;;6188298;23;19920;-81
2022/09/09 03:36:15;;;;;;;;;;;17.50;81.70;;;;;;6187836;23;19923;-81
2022/09/09 03:38:41;;;;;;;;;;;17.50;80.70;;;;;;6189298;23;19920;-79
2022/09/09 03:41:08;;;;;;;;;;;17.50;80.80;;;;;;6185985;23;19942;-81
2022/09/09 03:43:36;;;;;;;;;;;17.50;82.10;;;;;;6186291;23;19916;-81
2022/09/09 03:46:02;;;;;;;;;;;17.40;83.10;;;;;;6187894;23;19967;-78
2022/09/09 03:48:29;;;;;;;;;;;17.30;82.60;;;;;;6185501;23;19917;-82
2022/09/09 03:50:57;;;;;;;;;;;17.30;83.00;;;;;;6186102;23;19939;-80
2022/09/09 03:53:24;;;;;;;;;;;17.30;83.10;;;;;;6184722;23;19915;-79
2022/09/09 03:55:54;;;;;;;;;;;17.20;84.80;;;;;;6184953;23;19946;-81
2022/09/09 03:58:21;;;;;;;;;;;17.20;86.10;;;;;;6188818;23;20009;-78
2022/09/09 04:00:58;;;;;;;;;;;17.10;85.50;;;;;;6184996;23;19990;-80
2022/09/09 04:03:25;;;;;;;;;;;17.10;85.00;;;;;;6173012;23;20384;-77
2022/09/09 04:05:54;;;;;;;;;;;17.00;85.00;;;;;;6185384;23;19916;-81
2022/09/09 04:08:22;;;;;;;;;;;17.00;86.20;;;;;;6187794;23;19944;-81
2022/09/09 04:10:49;;;;;;;;;;;16.70;87.00;;;;;;6186616;23;19951;-79
2022/09/09 04:13:17;;;;;;;;;;;16.60;88.30;;;;;;6187289;23;20042;-80
2022/09/09 04:15:49;;;;;;;;;;;16.50;89.70;;;;;;6187579;23;19928;-78
2022/09/09 04:18:16;;;;;;;;;;;16.40;90.00;;;;;;6186221;23;20340;-81
2022/09/09 04:20:46;;;;;;;;;;;16.50;89.90;;;;;;6186508;23;19923;-81
2022/09/09 04:23:13;;;;;;;;;;;16.40;90.70;;;;;;6183529;23;19992;-79
2022/09/09 04:25:44;;;;;;;;;;;16.30;91.50;;;;;;6184554;23;19991;-79
2022/09/09 04:28:11;;;;;;;;;;;16.40;90.80;;;;;;6183540;23;19999;-78
2022/09/09 04:30:39;;;;;;;;;;;16.40;90.80;;;;;;6185701;23;19916;-81
2022/09/09 04:33:06;;;;;;;;;;;16.40;90.80;;;;;;6188593;23;19946;-81
2022/09/09 04:35:33;;;;;;;;;;;16.30;90.80;;;;;;6186275;23;20010;-81
2022/09/09 04:38:02;;;;;;;;;;;16.30;90.90;;;;;;6187922;23;19944;-79
2022/09/09 04:40:29;;;;;;;;;;;16.30;91.10;;;;;;6188280;23;19940;-81
2022/09/09 04:43:00;;;;;;;;;;;16.00;91.60;;;;;;6189625;23;20004;-82
2022/09/09 04:45:27;;;;;;;;;;;15.80;93.20;;;;;;6189392;23;19948;-81
2022/09/09 04:47:53;;;;;;;;;;;15.90;92.80;;;;;;6185932;23;19960;-80
2022/09/09 04:50:20;;;;;;;;;;;15.80;92.70;;;;;;6185719;23;20257;-81
2022/09/09 04:52:47;;;;;;;;;;;15.90;92.50;;;;;;6187691;23;20002;-82
2022/09/09 04:55:14;;;;;;;;;;;16.00;92.90;;;;;;6185508;23;19947;-80
2022/09/09 04:57:41;;;;;;;;;;;16.00;92.70;;;;;;6185552;23;20305;-78
2022/09/09 05:00:08;;;;;;;;;;;16.00;92.60;;;;;;6185871;23;19955;-81
2022/09/09 05:02:38;;;;;;;;;;;15.90;94.20;;;;;;6186869;23;19967;-81
2022/09/09 05:05:06;;;;;;;;;;;15.70;94.80;;;;;;6188937;23;20308;-81
2022/09/09 05:07:32;;;;;;;;;;;15.70;94.50;;;;;;6184326;23;19952;-81
2022/09/09 05:09:59;;;;;;;;;;;15.80;94.10;;;;;;6184188;23;19916;-79
2022/09/09 05:12:26;;;;;;;;;;;15.90;94.40;;;;;;6186350;23;19947;-81
2022/09/09 05:14:53;;;;;;;;;;;15.80;95.00;;;;;;6184680;23;19923;-80
2022/09/09 05:17:22;;;;;;;;;;;15.80;95.20;;;;;;6182975;23;20256;-80
2022/09/09 05:19:49;;;;;;;;;;;15.90;94.10;;;;;;6185610;23;19916;-81
2022/09/09 05:22:22;;;;;;;;;;;15.90;93.80;;;;;;6185556;23;20011;-81
2022/09/09 05:24:52;;;;;;;;;;;16.00;93.50;;;;;;6186983;23;19998;-80
2022/09/09 05:27:19;;;;;;;;;;;16.10;94.00;;;;;;6184022;23;19923;-78
2022/09/09 05:29:49;;;;;;;;;;;16.10;93.50;;;;;;6187239;23;19943;-81
2022/09/09 05:32:16;;;;;;;;;;;16.20;93.20;;;;;;6185175;23;19991;-79
2022/09/09 05:34:43;;;;;;;;;;;16.20;92.90;;;;;;6183879;23;19916;-79
2022/09/09 05:37:10;;;;;;;;;;;16.20;92.80;;;;;;6183881;23;19991;-79
2022/09/09 05:39:37;;;;;;;;;;;16.20;92.70;;;;;;6185112;23;19916;-78
2022/09/09 05:42:04;;;;;;;;;;;16.20;92.60;;;;;;6184691;23;19942;-77
2022/09/09 05:44:31;;;;;;;;;;;16.10;93.10;;;;;;6184187;23;19926;-79
2022/09/09 05:46:58;;;;;;;;;;;16.20;92.80;;;;;;6183994;23;20359;-80
2022/09/09 05:49:25;;;;;;;;;;;16.20;93.20;;;;;;6182914;23;19916;-77
2022/09/09 05:51:52;;;;;;;;;;;16.20;93.20;;;;;;6184292;23;19947;-81
2022/09/09 05:54:19;;;;;;;;;;;16.20;93.10;;;;;;6183720;23;19920;-79
2022/09/09 05:56:50;;;;;;;;;;;16.10;92.80;;;;;;6183816;23;19920;-80
2022/09/09 05:59:18;;;;;;;;;;;16.20;92.80;;;;;;6183549;23;19916;-80
2022/09/09 06:01:45;;;;;;;;;;;16.20;92.80;;;;;;6185869;23;19995;-78
2022/09/09 06:04:12;;;;;;;;;;;16.20;92.80;;;;;;6183298;23;20638;-79
2022/09/09 06:06:39;;;;;;;;;;;16.20;93.00;;;;;;6185010;23;19922;-83
2022/09/09 06:09:09;;;;;;;;;;;16.30;93.00;;;;;;6186441;23;19920;-81
2022/09/09 06:11:37;;;;;;;;;;;16.40;93.30;;;;;;6184840;23;19943;-81
2022/09/09 06:14:04;;;;;;;;;;;16.30;93.30;;;;;;6185695;23;19983;-81
2022/09/09 06:16:34;;;;;;;;;;;16.40;93.20;;;;;;6183728;23;20004;-81
2022/09/09 06:19:03;;;;;;;;;;;16.40;93.30;;;;;;6185482;23;19919;-79
2022/09/09 06:21:33;;;;;;;;;;;16.50;93.00;;;;;;6184303;23;19923;-80
2022/09/09 06:24:00;;;;;;;;;;;16.50;93.50;;;;;;6182946;23;19922;-81
2022/09/09 06:26:43;;;;;;;;;;;16.60;93.50;;;;;;6186136;23;19940;-80
2022/09/09 06:29:10;;;;;;;;;;;16.60;93.60;;;;;;6184827;23;20348;-78
2022/09/09 06:31:37;;;;;;;;;;;16.80;93.50;;;;;;6184556;23;19947;-77
2022/09/09 06:34:06;;;;;;;;;;;16.90;93.10;;;;;;6185941;23;19920;-77
2022/09/09 06:36:35;;;;;;;;;;;17.00;92.90;;;;;;6159039;23;20293;-78
2022/09/09 06:39:02;;;;;;;;;;;17.10;92.30;;;;;;6184808;23;19948;-82
2022/09/09 06:41:29;;;;;;;;;;;17.20;91.30;;;;;;6184634;23;19939;-82
2022/09/09 06:43:56;;;;;;;;;;;17.30;90.80;;;;;;6158253;23;19920;-79
2022/09/09 06:46:27;;;;;;;;;;;17.50;90.20;;;;;;6184863;23;19947;-81
2022/09/09 06:48:55;;;;;;;;;;;17.60;89.40;;;;;;6184132;23;19916;-80
2022/09/09 06:51:23;;;;;;;;;;;17.80;88.50;;;;;;6183530;23;20329;-78
2022/09/09 06:53:50;;;;;;;;;;;17.90;87.50;;;;;;6185682;23;19923;-79
2022/09/09 06:56:17;;;;;;;;;;;18.00;85.30;;;;;;6183978;23;19951;-78
2022/09/09 06:58:45;;;;;;;;;;;18.20;82.70;;;;;;6185133;23;20294;-80
2022/09/09 07:01:16;;;;;;;;;;;18.30;80.50;;;;;;6184411;23;19947;-79
2022/09/09 07:03:45;;;;;;;;;;;18.60;81.30;;;;;;6185339;23;20399;-79
2022/09/09 07:06:17;;;;;;;;;;;18.90;78.90;;;;;;6186403;23;19997;-81
2022/09/09 07:08:43;;;;;;;;;;;19.20;78.00;;;;;;6185231;23;19923;-81
2022/09/09 07:11:22;;;;;;;;;;;19.30;77.10;;;;;;6184647;23;19983;-79
2022/09/09 07:13:49;;;;;;;;;;;19.40;75.40;;;;;;6183409;23;19987;-79
2022/09/09 07:16:17;;;;;;;;;;;19.50;74.60;;;;;;6185833;23;20376;-78
2022/09/09 07:18:44;;;;;;;;;;;19.60;69.80;;;;;;6184469;23;19916;-79
2022/09/09 07:21:12;;;;;;;;;;;19.70;66.90;;;;;;6186220;23;19927;-82
2022/09/09 07:23:39;;;;;;;;;;;19.90;66.30;;;;;;6184739;23;19916;-79
2022/09/09 07:26:10;;;;;;;;;;;20.00;64.70;;;;;;6186538;23;19944;-82
2022/09/09 07:28:37;;;;;;;;;;;20.10;63.30;;;;;;6187550;23;19919;-79
2022/09/09 07:31:05;;;;;;;;;;;20.20;62.40;;;;;;6184588;23;19991;-79
2022/09/09 07:33:35;;;;;;;;;;;20.30;60.60;;;;;;6158824;23;20238;-79
2022/09/09 07:36:07;;;;;;;;;;;20.50;60.90;;;;;;6185606;23;19916;-81
2022/09/09 07:38:40;;;;;;;;;;;20.70;60.50;;;;;;6184976;23;19916;-79
2022/09/09 07:41:11;;;;;;;;;;;20.80;61.50;;;;;;6185469;23;19995;-79
2022/09/09 07:43:39;;;;;;;;;;;20.90;61.50;;;;;;6182260;23;20390;-79
2022/09/09 07:46:06;;;;;;;;;;;21.00;62.90;;;;;;6184785;23;20360;-81
2022/09/09 07:48:34;;;;;;;;;;;20.90;60.80;;;;;;6185548;23;19924;-79
2022/09/09 07:51:08;;;;;;;;;;;21.00;61.70;;;;;;6184092;23;19947;-78
2022/09/09 07:53:36;;;;;;;;;;;21.10;62.20;;;;;;6186610;23;19952;-80
2022/09/09 07:56:04;;;;;;;;;;;21.30;63.10;;;;;;6183904;23;20252;-81
2022/09/09 07:58:31;;;;;;;;;;;21.50;65.30;;;;;;6185139;23;19916;-79
2022/09/09 08:01:11;;;;;;;;;;;21.70;68.90;;;;;;6186172;23;20261;-82
2022/09/09 08:03:38;;;;;;;;;;;21.90;68.90;;;;;;6182226;23;19999;-79
2022/09/09 08:06:06;;;;;;;;;;;22.00;64.30;;;;;;6184304;23;19936;-78
2022/09/09 08:08:33;;;;;;;;;;;22.30;57.70;;;;;;6183787;23;19992;-78
2022/09/09 08:11:11;;;;;;;;;;;22.50;55.00;;;;;;6186155;23;19932;-82
2022/09/09 08:13:39;;;;;;;;;;;22.60;56.80;;;;;;6183631;23;20306;-79
2022/09/09 08:16:06;;;;;;;;;;;22.80;53.60;;;;;;6184230;23;20385;-80
2022/09/09 08:18:33;;;;;;;;;;;22.90;60.00;;;;;;6185406;23;19916;-79
2022/09/09 08:21:13;;;;;;;;;;;23.00;63.00;;;;;;6184893;23;19920;-78
2022/09/09 08:23:41;;;;;;;;;;;23.20;67.40;;;;;;6184061;23;19955;-79
2022/09/09 08:26:14;;;;;;;0.85;0.35;;;23.40;68.10;;;;;;6185505;23;20341;-78
2022/09/09 08:28:42;;;;;;;0.30;0.30;;;23.60;67.70;;;;;;6185263;23;20029;-80
2022/09/09 08:31:16;;;;;;;0.30;0.30;;;23.60;68.40;;;;;;6184931;23;20029;-78
2022/09/09 08:33:45;;;;;;;0.40;0.40;;;23.60;67.90;;;;;;6185857;23;20032;-79
2022/09/09 08:36:18;;;;;;;0.30;0.30;;;23.70;67.70;;;;;;6183849;23;20497;-79
2022/09/09 08:38:50;;;;;;;;;;;23.90;68.50;;;;;;6185848;23;20053;-79
2022/09/09 08:41:35;;;;;;;;;;;23.90;67.80;;;;;;6185722;23;20353;-82
2022/09/09 08:44:02;;;;;;;;;;;23.60;68.80;;;;;;6184132;23;19999;-80
2022/09/09 08:47:01;;;;;;;0.50;0.35;;;23.40;70.10;;;;;;6184710;23;19954;-80
2022/09/09 08:49:53;;;;;;;0.40;0.40;;;23.10;71.20;;;;;;6178379;23;20099;-79
2022/09/09 08:52:32;;;;;;;0.40;0.40;;;23.20;72.50;;;;;;6184705;23;20044;-78
2022/09/09 08:55:23;;;;;;;0.60;0.40;;;23.40;72.50;;;;;;6183838;23;20029;-81
2022/09/09 08:57:54;;;;;;;0.40;0.40;;;23.70;71.30;;;;;;6184143;23;20447;-79
2022/09/09 09:00:24;;;;;;;0.40;0.40;;;23.90;69.30;;;;;;6182543;23;20467;-80
2022/09/09 09:03:15;;;;;;;0.32;0.32;;;23.90;69.50;;;;;;6182800;23;20506;-79
2022/09/09 09:05:53;;;;;;;0.47;0.30;;;24.10;71.80;;;;;;6183238;23;20380;-82
2022/09/09 09:08:26;;;;;;;0.30;0.30;;;24.50;68.70;;;;;;6182277;23;20404;-79
2022/09/09 09:10:56;;;;;;;0.30;0.30;;;24.80;67.50;;;;;;6181489;23;20367;-83
2022/09/09 09:13:44;;;;;;;0.40;0.40;;;24.60;66.30;;;;;;6182630;23;20379;-79
2022/09/09 09:16:23;;;;;;;;;;;24.60;67.20;;;;;;6184193;23;20414;-81
2022/09/09 09:18:51;;;;;;;0.47;0.40;;;24.40;67.70;;;;;;6184224;23;19987;-81
2022/09/09 09:21:44;;;;;;;0.40;0.40;;;24.70;69.20;;;;;;6183815;23;20052;-83
2022/09/09 09:24:32;;;;;;;0.30;0.30;;;24.50;67.60;;;;;;6182793;23;20032;-80
2022/09/09 09:27:12;;;;;;;0.40;0.40;;;24.40;68.30;;;;;;6183123;23;20029;-80
2022/09/09 09:29:41;;;;;;;0.40;0.40;;;24.50;68.30;;;;;;6183514;23;20076;-82
2022/09/09 09:32:33;;;;;;;0.30;0.30;;;24.60;68.80;;;;;;6183480;23;20334;-80
2022/09/09 09:35:07;;;;;;;0.30;0.30;;;24.90;66.50;;;;;;6183234;23;20021;-81
2022/09/09 09:37:35;;;;;;;0.45;0.40;;;25.00;65.30;;;;;;6183146;23;20565;-83
2022/09/09 09:40:28;;;;;;;0.93;0.50;;;24.60;65.90;;;;;;6183762;23;20052;-82
2022/09/09 09:42:59;;;;;;;0.32;0.32;;;24.60;66.30;;;;;;6179591;23;20088;-82
2022/09/09 09:45:35;;;;;;;0.40;0.40;;;24.50;66.80;;;;;;6158287;23;20100;-79
2022/09/09 09:48:04;;;;;;;0.30;0.30;;;24.50;66.20;;;;;;6182667;23;20091;-82
2022/09/09 09:50:34;;;;;;;0.40;0.30;;;24.70;66.70;;;;;;6183628;23;20039;-81
2022/09/09 09:53:04;;;;;;;0.20;0.20;;;24.90;66.60;;;;;;6183845;23;20092;-79
2022/09/09 09:55:34;;;;;;;0.30;0.30;;;24.90;65.90;;;;;;6183081;23;20024;-78
2022/09/09 09:58:06;;;;;;;0.40;0.30;;;25.00;63.50;;;;;;6182234;23;20454;-80
2022/09/09 10:00:36;;;;;;;0.95;0.30;;;25.10;65.20;;;;;;6182911;23;20032;-81
2022/09/09 10:03:27;;;;;;;0.38;0.20;;;25.40;64.80;;;;;;6181458;23;20482;-79
2022/09/09 10:05:56;;;;;;;0.50;0.30;;;25.60;61.90;;;;;;6181399;23;20413;-81
2022/09/09 10:08:25;;;;;;;0.77;0.20;;;25.60;62.70;;;;;;6183136;23;20455;-80
2022/09/09 10:11:06;;;;;;;0.25;0.20;;;25.70;60.10;;;;;;6181535;23;20411;-79
2022/09/09 10:14:07;;;;;;;0.50;0.20;;;25.50;60.70;;;;;;6182285;23;20402;-81
2022/09/09 10:17:04;;;;;;;0.40;0.20;;;25.70;62.20;;;;;;6181212;23;20432;-82
2022/09/09 10:19:34;;;;;;;0.50;0.13;;;26.00;61.60;;;;;;6180484;23;20400;-80
2022/09/09 10:22:26;;;;;;;0.20;0.20;;;26.20;59.50;;;;;;6181154;23;20467;-81
2022/09/09 10:25:26;;;;;;;0.30;0.20;;;26.20;60.30;;;;;;6180997;23;20371;-82
2022/09/09 10:28:20;;;;;;;0.50;0.20;;;25.90;61.70;;;;;;6180803;23;20734;-79
2022/09/09 10:31:31;;;;;;;0.22;0.20;;;25.50;60.60;;;;;;6180723;23;20859;-81
2022/09/09 10:34:35;;;;;;;0.20;0.20;;;25.70;63.40;;;;;;6124928;23;20831;-82
2022/09/09 10:37:27;;;;;;;0.60;0.20;;;26.00;61.00;;;;;;6167822;23;20376;-81
2022/09/09 10:40:14;;;;;;;0.37;0.20;;;26.00;60.10;;;;;;6205109;23;20384;-82
2022/09/09 10:42:42;;;;;;;0.40;0.30;;;26.20;59.80;;;;;;6180908;23;20455;-79
2022/09/09 10:45:39;;;;;;;0.50;0.20;;;26.00;59.80;;;;;;6181217;23;20387;-82
2022/09/09 10:48:26;;;;;;;0.20;0.20;;;26.20;60.60;;;;;;6180566;23;20998;-83
2022/09/09 10:50:56;;;;;;;0.30;0.20;;;26.20;59.30;;;;;;6181331;23;20396;-83
2022/09/09 10:53:36;;;;;;;0.20;0.20;;;26.20;60.10;;;;;;6181709;23;20427;-80
2022/09/09 10:56:16;;;;;;;0.10;0.10;;;26.20;59.30;;;;;;6180613;23;20659;-79
2022/09/09 10:58:52;;;;;;;0.20;0.20;;;26.30;59.10;;;;;;6180165;23;20440;-81
2022/09/09 11:01:37;;;;;;;0.20;0.20;;;26.50;58.30;;;;;;6181752;23;20448;-82
2022/09/09 11:04:27;;;;;;;0.20;0.20;;;26.80;57.60;;;;;;6180300;23;20730;-80
2022/09/09 11:06:55;;;;;;;0.63;0.20;;;27.00;55.90;;;;;;6181287;23;20384;-83
2022/09/09 11:09:28;;;;;;;0.30;0.20;;;27.00;54.90;;;;;;6181245;23;20373;-80
2022/09/09 11:11:57;;;;;;;0.20;0.20;;;27.00;53.90;;;;;;6180345;23;20451;-82
2022/09/09 11:14:40;;;;;;;0.15;0.15;;;26.80;54.00;;;;;;6181353;23;20398;-79
2022/09/09 11:17:14;;;;;;;0.57;0.20;;;26.60;54.70;;;;;;6182916;23;20452;-80
2022/09/09 11:19:43;;;;;;;0.30;0.20;;;26.60;55.10;;;;;;6180915;23;20467;-81
2022/09/09 11:22:35;;;;;;;0.40;0.10;;;26.50;55.40;;;;;;6182060;23;20372;-80
2022/09/09 11:25:16;;;;;;;0.13;0.10;;;26.40;57.80;;;;;;6180550;23;20408;-82
2022/09/09 11:28:30;;;;;;;0.20;0.10;;;26.50;55.80;;;;;;6181024;23;20447;-82
2022/09/09 11:31:08;;;;;;;0.13;0.13;;;26.70;57.10;;;;;;6175604;23;20372;-79
2022/09/09 11:34:08;;;;;;;0.35;0.10;;;27.00;56.10;;;;;;6180180;23;20368;-81
2022/09/09 11:36:52;;;;;;;0.30;0.10;;;27.30;57.70;;;;;;6180198;23;20447;-79
2022/09/09 11:39:39;;;;;;;0.35;0.10;;;27.60;53.00;;;;;;6182922;23;20373;-80
2022/09/09 11:42:13;;;;;;;0.20;0.10;;;27.50;54.00;;;;;;6181539;23;20379;-79
2022/09/09 11:44:41;;;;;;;0.15;0.10;;;27.80;55.00;;;;;;6185904;23;20031;-82
2022/09/09 11:47:24;;;;;;;;;;;27.70;54.40;;;;;;6184600;23;20021;-82
2022/09/09 11:49:51;;;;;;;;;;;27.70;55.10;;;;;;6185215;23;19916;-82
2022/09/09 11:52:35;;;;;;;;;;;27.70;54.30;;;;;;6184710;23;19995;-80
2022/09/09 11:55:25;;;;;;;;;;;27.90;53.40;;;;;;6183884;23;19951;-79
2022/09/09 11:58:01;;;;;;;;;;;27.90;51.90;;;;;;6186076;23;19916;-82
2022/09/09 12:00:36;;;;;;;;;;;28.00;50.80;;;;;;6188401;23;19916;-82
2022/09/09 12:03:40;;;;;;;0.10;0.10;;;28.20;51.60;;;;;;6187433;23;19923;-82
2022/09/09 12:06:24;;;;;;;;;;;28.20;50.50;;;;;;6187942;23;20107;-82
2022/09/09 12:08:57;;;;;;;0.43;0.20;;;27.70;51.20;;;;;;6185522;23;19971;-82
2022/09/09 12:11:26;;;;;;;0.10;0.10;;;27.70;49.70;;;;;;6184750;23;20358;-80
2022/09/09 12:14:03;;;;;;;0.20;0.20;;;28.30;50.50;;;;;;6188817;23;20096;-83
2022/09/09 12:16:37;;;;;;;0.25;0.17;;;28.70;50.40;;;;;;6184981;23;20044;-82
2022/09/09 12:19:30;;;;;;;0.70;0.20;;;28.60;48.90;;;;;;6181974;23;20367;-82
2022/09/09 12:22:32;;;;;;;0.20;0.10;;;28.90;48.30;;;;;;6179141;23;20376;-82
2022/09/09 12:25:22;;;;;;;0.13;0.13;;;28.70;49.10;;;;;;6175226;23;20370;-80
2022/09/09 12:28:11;;;;;;;0.20;0.10;;;28.80;49.80;;;;;;6179779;23;20368;-83
2022/09/09 12:31:01;;;;;;;0.17;0.10;;;28.90;49.10;;;;;;6209334;23;20748;-82
2022/09/09 12:33:37;;;;;;;0.10;0.10;;;28.50;50.30;;;;;;6181854;23;20420;-81
2022/09/09 12:36:09;;;;;;;0.20;0.10;;;27.70;50.40;;;;;;6182789;23;20025;-79
2022/09/09 12:38:41;;;;;;;0.10;0.10;;;27.20;51.50;;;;;;6187525;23;20530;-82
2022/09/09 12:41:25;;;;;;;0.20;0.20;;;27.10;52.10;;;;;;6185143;23;20045;-81
2022/09/09 12:44:08;;;;;;;0.10;0.10;;;27.30;53.30;;;;;;6184728;23;20021;-82
2022/09/09 12:46:44;;;;;;;0.22;0.22;;;27.00;50.50;;;;;;6183427;23;20025;-80
2022/09/09 12:49:28;;;;;;;0.10;0.10;;;27.20;53.00;;;;;;6182239;23;20108;-80
2022/09/09 12:51:57;;;;;;;0.20;0.20;;;27.30;52.90;;;;;;6187558;23;20021;-81
2022/09/09 12:54:24;;;;;;;0.20;0.20;;;27.50;49.90;;;;;;6187307;23;20108;-79
2022/09/09 12:56:51;;;;;;;0.20;0.20;;;27.40;51.40;;;;;;6194734;23;20041;-81
2022/09/09 12:59:26;;;;;;;0.10;0.10;;;27.70;52.30;;;;;;6186387;23;20034;-81
2022/09/09 13:01:57;;;;;;;1.20;0.28;;;28.20;51.70;;;;;;6189156;23;20029;-82
2022/09/09 13:04:25;;;;;;;0.20;0.20;;;28.40;50.20;;;;;;6186827;23;20040;-87
2022/09/09 13:06:52;;;;;;;0.13;0.13;;;28.30;49.20;;;;;;6188073;23;20467;-81
2022/09/09 13:09:19;;;;;;;0.28;0.10;;;28.60;50.90;;;;;;6185441;23;20460;-81
2022/09/09 13:11:51;;;;;;;0.13;0.13;;;28.70;50.40;;;;;;6185830;23;20407;-82
2022/09/09 13:14:38;;;;;;;0.10;0.10;;;28.30;48.60;;;;;;6186659;23;20845;-81
2022/09/09 13:17:06;;;;;;;0.10;0.10;;;28.40;49.90;;;;;;6184393;23;20371;-82
2022/09/09 13:19:38;;;;;;;0.30;0.10;;;28.40;49.70;;;;;;6181317;23;20361;-82
2022/09/09 13:22:32;;;;;;;0.10;0.10;;;28.50;48.40;;;;;;6187157;23;20085;-82
2022/09/09 13:25:11;;;;;;;0.17;0.10;;;28.70;47.60;;;;;;6184513;23;20029;-81
2022/09/09 13:27:42;;;;;;;0.63;0.17;;;28.60;48.50;;;;;;6185823;23;20099;-83
2022/09/09 13:30:35;;;;;;;0.10;0.10;;;28.80;48.30;;;;;;6187841;23;20368;-81
2022/09/09 13:33:14;;;;;;;0.30;0.10;;;28.90;45.80;;;;;;6182424;23;20384;-82
2022/09/09 13:35:53;;;;;;;0.20;0.10;;;28.90;46.90;;;;;;6182453;23;20051;-82
2022/09/09 13:38:21;;;;;;;0.30;0.20;;;28.70;47.10;;;;;;6185065;23;20386;-82
2022/09/09 13:40:54;;;;;;;0.20;0.17;;;28.30;49.30;;;;;;6186847;23;20025;-82
2022/09/09 13:43:23;;;;;;;0.10;0.10;;;28.50;49.00;;;;;;6184895;23;20343;-81
2022/09/09 13:46:04;;;;;;;0.10;0.10;;;28.20;48.80;;;;;;6152349;23;20264;-82
2022/09/09 13:48:31;;;;;;;0.28;0.15;;;28.20;48.80;;;;;;6155252;23;20069;-82
2022/09/09 13:51:05;;;;;;;0.25;0.13;;;28.30;50.80;;;;;;6157411;23;20021;-82
2022/09/09 13:53:32;;;;;;;0.20;0.17;;;28.00;48.70;;;;;;6154508;23;20049;-83
2022/09/09 13:55:59;;;;;;;0.17;0.10;;;28.30;49.20;;;;;;6155346;23;20053;-82
2022/09/09 13:58:26;;;;;;;0.20;0.20;;;28.40;48.80;;;;;;6155360;23;20105;-82
2022/09/09 14:00:53;;;;;;;0.30;0.15;;;28.60;49.10;;;;;;6153182;23;20116;-82
2022/09/09 14:03:21;;;;;;;0.20;0.10;;;28.80;48.20;;;;;;6153682;23;20489;-82
2022/09/09 14:05:48;;;;;;;0.10;0.10;;;28.50;48.30;;;;;;6153572;23;20094;-81
2022/09/09 14:08:23;;;;;;;0.10;0.10;;;28.60;48.00;;;;;;6155552;23;20108;-82
2022/09/09 14:10:52;;;;;;;0.28;0.15;;;28.80;47.80;;;;;;6153466;23;20018;-82
2022/09/09 14:13:19;;;;;;;0.10;0.10;;;29.20;47.90;;;;;;6159124;23;20358;-82
2022/09/09 14:15:47;;;;;;;0.20;0.10;;;29.60;47.90;;;;;;6153145;23;20453;-83
2022/09/09 14:18:14;;;;;;;0.10;0.10;;;29.70;45.20;;;;;;6153969;23;20344;-82